Terminal Aerodrome Forecast
Issued by NWS

Home | Current Version | Previous Version | Text Only | Print | Product List | Glossary On
Versions: 1 2 3 4 5 6 7 8 9 10 11 12
000
FTUS44 KOUN 010521
TAFHBR
TAF
KHBR 010521Z 0106/0206 10009KT P6SM SCT250
     FM011000 16013KT P6SM SCT250
     FM011500 18015G22KT P6SM BKN250=

USA.gov is the U.S. government's official web portal to all federal, state and local government web resources and services.